TimeCDT,TemperatureF,Dew PointF,Humidity,Sea Level PressureIn,VisibilityMPH,Wind Direction,Wind SpeedMPH,Gust SpeedMPH,PrecipitationIn,Events,Conditions,WindDirDegrees,DateUTC
12:53 AM,55.9,46.9,72,29.89,10.0,SW,13.8,-,N/A,,Partly Cloudy,220,2012-10-09 05:53:00
1:53 AM,55.0,46.9,74,29.86,10.0,SW,10.4,-,N/A,,Partly Cloudy,230,2012-10-09 06:53:00
3:53 AM,51.8,46.4,82,29.93,10.0,WSW,10.4,-,N/A,,Partly Cloudy,240,2012-10-09 08:53:00
4:53 AM,50.0,46.0,86,29.84,10.0,West,8.1,-,N/A,,Clear,260,2012-10-09 09:53:00
5:53 AM,46.9,45.0,93,29.85,10.0,WSW,9.2,-,N/A,,Clear,250,2012-10-09 10:53:00
6:53 AM,48.0,45.0,89,29.85,10.0,WSW,10.4,-,N/A,,Clear,240,2012-10-09 11:53:00
7:53 AM,46.9,45.0,93,29.86,10.0,WSW,9.2,-,N/A,,Clear,250,2012-10-09 12:53:00
8:53 AM,53.1,46.9,80,29.86,10.0,WSW,12.7,-,N/A,,Partly Cloudy,250,2012-10-09 13:53:00
9:53 AM,60.1,46.9,62,29.86,10.0,West,12.7,-,N/A,,Partly Cloudy,270,2012-10-09 14:53:00
10:53 AM,71.1,45.0,39,29.86,10.0,West,10.4,-,N/A,,Partly Cloudy,270,2012-10-09 15:53:00
11:53 AM,82.9,37.9,20,29.83,10.0,WNW,11.5,-,N/A,,Partly Cloudy,290,2012-10-09 16:53:00
12:53 PM,87.1,30.0,13,29.81,10.0,NW,19.6,26.5,N/A,,Partly Cloudy,310,2012-10-09 17:53:00
1:53 PM,89.1,30.0,12,29.80,10.0,NW,17.3,23.0,N/A,,Scattered Clouds,310,2012-10-09 18:53:00
2:53 PM,89.1,30.0,12,29.78,10.0,West,24.2,31.1,N/A,,Scattered Clouds,270,2012-10-09 19:53:00
3:53 PM,89.1,30.0,12,29.77,10.0,West,19.6,27.6,N/A,,Scattered Clouds,270,2012-10-09 20:53:00
4:53 PM,89.1,28.9,12,29.78,10.0,West,13.8,20.7,N/A,,Partly Cloudy,280,2012-10-09 21:53:00
5:53 PM,88.0,30.0,12,29.79,10.0,West,9.2,-,N/A,,Partly Cloudy,280,2012-10-09 22:53:00
6:53 PM,82.9,35.1,18,29.81,10.0,West,3.5,-,N/A,,Partly Cloudy,280,2012-10-09 23:53:00
7:53 PM,78.1,30.9,18,29.84,10.0,ENE,3.5,-,N/A,,Partly Cloudy,70,2012-10-10 00:53:00
8:53 PM,69.1,37.9,32,29.88,10.0,East,10.4,-,N/A,,Partly Cloudy,80,2012-10-10 01:53:00
9:53 PM,66.0,41.0,40,29.92,10.0,East,10.4,-,N/A,,Clear,80,2012-10-10 02:53:00
10:53 PM,63.0,39.0,41,29.94,10.0,ENE,13.8,-,N/A,,Clear,70,2012-10-10 03:53:00
11:53 PM,62.1,39.0,43,29.94,10.0,ENE,15.0,-,N/A,,Clear,60,2012-10-10 04:53:00